Etusivu
METAR-TAF:

METAR-TAF

Lentoasemat :

Meadow Lake, Saskatchewan, Kanada

Leveyspiiri: 54-08N, Pituuspiiri: 108-31W, korkeus merenpinnasta: 480 m

Tämänhetkinen sää

Tämä raportti tehtiin 2 tuntia ja 52 minuuttia sitten, kello 00.00 UTC
Tuuli 14 kn lännestä/luoteesta puuskistuen 27 kn:hen
Lämpötila 11°C
Kosteus 25%
Ilmanpaine 1009 hPa
Näkyvyys: 24.1 km
Muutamia pilviä 9500 ft:n korkeudessa
Pilvistä 12000 ft:n korkeudessa

METAR: CYLJ 250000Z 29014G27KT 15SM FEW095 OVC120 11/M08 A2981 RMK ACC1AS7 VIRGA W LAST STFD OB/ NXT251200UTC SLP114 DENSITY ALT 1700FT

Aika: 20:52 (02:52 UTC)


TAF: puuttuu

Säähavainnot ja -ennusteet yli 4000 lentoasemalta (METAR- ja TAF-raportit).

Käytössä olevat sääasemat on merkitty karttaan keltaisilla ja punaisilla pisteillä.

Aseta hiiri pisteen päälle nähdäksesi sääaseman nimen.

Klikkaa sitten nähdäksesi säähavainnot ja -ennusteet.

Kartan vaihtaminen: klikkaa mustalla rastilla varustettuja vihreitä pisteitä, niin voit zoomata sisään; viivalla varustettua vihreää pistettä, niin voit zoomata ulos tai vihreitä nuolia, niin pääset viereisille kartoille.


METAR-TAF: